sensor_id;sensor_type;location;lat;lon;timestamp;temperature;humidity
18260;DHT22;9256;52.236;5.712;2023-04-03T00:01:45;2.70;99.90
18260;DHT22;9256;52.236;5.712;2023-04-03T00:04:11;2.60;99.90
18260;DHT22;9256;52.236;5.712;2023-04-03T00:06:38;2.60;99.90
18260;DHT22;9256;52.236;5.712;2023-04-03T00:09:05;2.60;99.90
18260;DHT22;9256;52.236;5.712;2023-04-03T00:11:32;2.60;99.90
18260;DHT22;9256;52.236;5.712;2023-04-03T00:14:00;2.60;99.90
18260;DHT22;9256;52.236;5.712;2023-04-03T00:16:27;2.50;99.90
18260;DHT22;9256;52.236;5.712;2023-04-03T00:18:54;2.50;99.90
18260;DHT22;9256;52.236;5.712;2023-04-03T00:21:21;2.60;99.90
18260;DHT22;9256;52.236;5.712;2023-04-03T00:23:48;2.50;99.90
18260;DHT22;9256;52.236;5.712;2023-04-03T00:26:15;2.40;99.90
18260;DHT22;9256;52.236;5.712;2023-04-03T00:28:42;2.50;99.90
18260;DHT22;9256;52.236;5.712;2023-04-03T00:31:11;2.50;99.90
18260;DHT22;9256;52.236;5.712;2023-04-03T00:33:40;2.50;99.90
18260;DHT22;9256;52.236;5.712;2023-04-03T00:36:07;2.60;99.90
18260;DHT22;9256;52.236;5.712;2023-04-03T00:38:36;2.50;99.90
18260;DHT22;9256;52.236;5.712;2023-04-03T00:41:03;2.50;99.90
18260;DHT22;9256;52.236;5.712;2023-04-03T00:43:30;2.40;99.90
18260;DHT22;9256;52.236;5.712;2023-04-03T00:45:58;2.40;99.90
18260;DHT22;9256;52.236;5.712;2023-04-03T00:48:30;2.40;99.90
18260;DHT22;9256;52.236;5.712;2023-04-03T00:50:58;2.40;99.90
18260;DHT22;9256;52.236;5.712;2023-04-03T00:53:28;2.50;99.90
18260;DHT22;9256;52.236;5.712;2023-04-03T00:55:57;2.30;99.90
18260;DHT22;9256;52.236;5.712;2023-04-03T00:58:30;2.30;99.90
18260;DHT22;9256;52.236;5.712;2023-04-03T01:00:59;2.20;99.90
18260;DHT22;9256;52.236;5.712;2023-04-03T01:03:31;2.20;99.90
18260;DHT22;9256;52.236;5.712;2023-04-03T01:05:58;2.30;99.90
18260;DHT22;9256;52.236;5.712;2023-04-03T01:08:25;2.20;99.90
18260;DHT22;9256;52.236;5.712;2023-04-03T01:10:52;2.20;99.90
18260;DHT22;9256;52.236;5.712;2023-04-03T01:13:22;2.20;99.90
18260;DHT22;9256;52.236;5.712;2023-04-03T01:15:50;2.20;99.90
18260;DHT22;9256;52.236;5.712;2023-04-03T01:18:17;2.20;99.90
18260;DHT22;9256;52.236;5.712;2023-04-03T01:24:17;2.20;99.90
18260;DHT22;9256;52.236;5.712;2023-04-03T01:26:48;2.20;99.90
18260;DHT22;9256;52.236;5.712;2023-04-03T01:29:19;2.10;99.90
18260;DHT22;9256;52.236;5.712;2023-04-03T01:31:52;2.10;99.90
18260;DHT22;9256;52.236;5.712;2023-04-03T01:34:20;2.10;99.90
18260;DHT22;9256;52.236;5.712;2023-04-03T01:36:47;2.10;99.90
18260;DHT22;9256;52.236;5.712;2023-04-03T01:39:14;2.10;99.90
18260;DHT22;9256;52.236;5.712;2023-04-03T01:41:44;2.00;99.90
18260;DHT22;9256;52.236;5.712;2023-04-03T01:44:12;2.00;99.90
18260;DHT22;9256;52.236;5.712;2023-04-03T01:46:39;2.00;99.90
18260;DHT22;9256;52.236;5.712;2023-04-03T01:49:08;2.00;99.90
18260;DHT22;9256;52.236;5.712;2023-04-03T01:51:35;2.00;99.90
18260;DHT22;9256;52.236;5.712;2023-04-03T01:54:02;2.00;99.90
18260;DHT22;9256;52.236;5.712;2023-04-03T01:56:29;1.90;99.90
18260;DHT22;9256;52.236;5.712;2023-04-03T01:58:56;1.90;99.90
18260;DHT22;9256;52.236;5.712;2023-04-03T02:01:23;1.90;99.90
18260;DHT22;9256;52.236;5.712;2023-04-03T02:03:51;1.90;99.90
18260;DHT22;9256;52.236;5.712;2023-04-03T02:06:19;1.80;99.90
18260;DHT22;9256;52.236;5.712;2023-04-03T02:08:46;1.80;99.90
18260;DHT22;9256;52.236;5.712;2023-04-03T02:11:13;1.80;99.90
18260;DHT22;9256;52.236;5.712;2023-04-03T02:13:40;1.80;99.90
18260;DHT22;9256;52.236;5.712;2023-04-03T02:16:08;1.80;99.90
18260;DHT22;9256;52.236;5.712;2023-04-03T02:18:36;1.80;99.90
18260;DHT22;9256;52.236;5.712;2023-04-03T02:21:03;1.80;99.90
18260;DHT22;9256;52.236;5.712;2023-04-03T02:23:32;1.70;99.90
18260;DHT22;9256;52.236;5.712;2023-04-03T02:26:09;1.60;99.90
18260;DHT22;9256;52.236;5.712;2023-04-03T02:28:36;1.60;99.90
18260;DHT22;9256;52.236;5.712;2023-04-03T02:31:04;1.60;99.90
18260;DHT22;9256;52.236;5.712;2023-04-03T02:33:32;1.60;99.90
18260;DHT22;9256;52.236;5.712;2023-04-03T02:35:59;1.60;99.90
18260;DHT22;9256;52.236;5.712;2023-04-03T02:38:26;1.60;99.90
18260;DHT22;9256;52.236;5.712;2023-04-03T02:41:00;1.60;99.90
18260;DHT22;9256;52.236;5.712;2023-04-03T02:43:27;1.60;99.90
18260;DHT22;9256;52.236;5.712;2023-04-03T02:45:54;1.50;99.90
18260;DHT22;9256;52.236;5.712;2023-04-03T02:48:22;1.40;99.90
18260;DHT22;9256;52.236;5.712;2023-04-03T02:50:49;1.40;99.90
18260;DHT22;9256;52.236;5.712;2023-04-03T02:53:17;1.40;99.90
18260;DHT22;9256;52.236;5.712;2023-04-03T02:55:44;1.50;99.90
18260;DHT22;9256;52.236;5.712;2023-04-03T02:58:13;1.50;99.90
18260;DHT22;9256;52.236;5.712;2023-04-03T03:00:40;1.40;99.90
18260;DHT22;9256;52.236;5.712;2023-04-03T03:03:07;1.40;99.90
18260;DHT22;9256;52.236;5.712;2023-04-03T03:05:34;1.30;99.90
18260;DHT22;9256;52.236;5.712;2023-04-03T03:08:01;1.30;99.90
18260;DHT22;9256;52.236;5.712;2023-04-03T03:10:28;1.30;99.90
18260;DHT22;9256;52.236;5.712;2023-04-03T03:12:55;1.30;99.90
18260;DHT22;9256;52.236;5.712;2023-04-03T03:15:24;1.20;99.90
18260;DHT22;9256;52.236;5.712;2023-04-03T03:17:51;1.20;99.90
18260;DHT22;9256;52.236;5.712;2023-04-03T03:20:17;1.20;99.90
18260;DHT22;9256;52.236;5.712;2023-04-03T03:22:44;1.20;99.90
18260;DHT22;9256;52.236;5.712;2023-04-03T03:25:11;1.20;99.90
18260;DHT22;9256;52.236;5.712;2023-04-03T03:27:38;1.20;99.90
18260;DHT22;9256;52.236;5.712;2023-04-03T03:30:06;1.20;99.90
18260;DHT22;9256;52.236;5.712;2023-04-03T03:32:35;1.20;99.90
18260;DHT22;9256;52.236;5.712;2023-04-03T03:35:02;1.20;99.90
18260;DHT22;9256;52.236;5.712;2023-04-03T03:37:29;1.10;99.90
18260;DHT22;9256;52.236;5.712;2023-04-03T03:39:56;1.10;99.90
18260;DHT22;9256;52.236;5.712;2023-04-03T03:42:23;1.00;99.90
18260;DHT22;9256;52.236;5.712;2023-04-03T03:44:50;1.00;99.90
18260;DHT22;9256;52.236;5.712;2023-04-03T03:47:17;1.00;99.90
18260;DHT22;9256;52.236;5.712;2023-04-03T03:49:45;1.00;99.90
18260;DHT22;9256;52.236;5.712;2023-04-03T03:52:12;1.00;99.90
18260;DHT22;9256;52.236;5.712;2023-04-03T03:54:39;1.00;99.90
18260;DHT22;9256;52.236;5.712;2023-04-03T03:57:06;1.10;99.90
18260;DHT22;9256;52.236;5.712;2023-04-03T03:59:33;1.00;99.90
18260;DHT22;9256;52.236;5.712;2023-04-03T04:02:00;1.00;99.90
18260;DHT22;9256;52.236;5.712;2023-04-03T04:04:27;0.80;99.90
18260;DHT22;9256;52.236;5.712;2023-04-03T04:06:56;0.90;99.90
18260;DHT22;9256;52.236;5.712;2023-04-03T04:09:22;0.90;99.90
18260;DHT22;9256;52.236;5.712;2023-04-03T04:11:49;0.90;99.90
18260;DHT22;9256;52.236;5.712;2023-04-03T04:14:16;0.80;99.90
18260;DHT22;9256;52.236;5.712;2023-04-03T04:16:43;0.80;99.90
18260;DHT22;9256;52.236;5.712;2023-04-03T04:19:10;0.80;99.90
18260;DHT22;9256;52.236;5.712;2023-04-03T04:21:37;0.80;99.90
18260;DHT22;9256;52.236;5.712;2023-04-03T04:24:06;0.80;99.90
18260;DHT22;9256;52.236;5.712;2023-04-03T04:26:34;0.80;99.90
18260;DHT22;9256;52.236;5.712;2023-04-03T04:29:01;0.80;99.90
18260;DHT22;9256;52.236;5.712;2023-04-03T04:31:28;0.80;99.90
18260;DHT22;9256;52.236;5.712;2023-04-03T04:33:54;0.80;99.90
18260;DHT22;9256;52.236;5.712;2023-04-03T04:36:21;0.80;99.90
18260;DHT22;9256;52.236;5.712;2023-04-03T04:38:48;0.80;99.90
18260;DHT22;9256;52.236;5.712;2023-04-03T04:41:19;0.80;99.90
18260;DHT22;9256;52.236;5.712;2023-04-03T04:43:47;0.80;99.90
18260;DHT22;9256;52.236;5.712;2023-04-03T04:46:14;0.80;99.90
18260;DHT22;9256;52.236;5.712;2023-04-03T04:48:41;0.70;99.90
18260;DHT22;9256;52.236;5.712;2023-04-03T04:51:09;0.70;99.90
18260;DHT22;9256;52.236;5.712;2023-04-03T04:53:36;0.60;99.90
18260;DHT22;9256;52.236;5.712;2023-04-03T04:56:04;0.70;99.90
18260;DHT22;9256;52.236;5.712;2023-04-03T04:58:32;0.70;99.90
18260;DHT22;9256;52.236;5.712;2023-04-03T05:00:59;0.60;99.90
18260;DHT22;9256;52.236;5.712;2023-04-03T05:03:26;0.60;99.90
18260;DHT22;9256;52.236;5.712;2023-04-03T05:05:53;0.60;99.90
18260;DHT22;9256;52.236;5.712;2023-04-03T05:08:20;0.60;99.90
18260;DHT22;9256;52.236;5.712;2023-04-03T05:10:47;0.60;99.90
18260;DHT22;9256;52.236;5.712;2023-04-03T05:13:14;0.60;99.90
18260;DHT22;9256;52.236;5.712;2023-04-03T05:15:43;0.60;99.90
18260;DHT22;9256;52.236;5.712;2023-04-03T05:18:10;0.60;99.90
18260;DHT22;9256;52.236;5.712;2023-04-03T05:20:36;0.60;99.90
18260;DHT22;9256;52.236;5.712;2023-04-03T05:23:04;0.50;99.90
18260;DHT22;9256;52.236;5.712;2023-04-03T05:25:31;0.60;99.90
18260;DHT22;9256;52.236;5.712;2023-04-03T05:27:58;0.60;99.90
18260;DHT22;9256;52.236;5.712;2023-04-03T05:30:25;0.60;99.90
18260;DHT22;9256;52.236;5.712;2023-04-03T05:32:53;0.60;99.90
18260;DHT22;9256;52.236;5.712;2023-04-03T05:35:21;0.60;99.90
18260;DHT22;9256;52.236;5.712;2023-04-03T05:37:48;0.60;99.90
18260;DHT22;9256;52.236;5.712;2023-04-03T05:40:18;0.60;99.90
18260;DHT22;9256;52.236;5.712;2023-04-03T05:42:45;0.60;99.90
18260;DHT22;9256;52.236;5.712;2023-04-03T05:45:12;0.60;99.90
18260;DHT22;9256;52.236;5.712;2023-04-03T05:47:39;0.70;99.90
18260;DHT22;9256;52.236;5.712;2023-04-03T05:50:08;0.80;99.90
18260;DHT22;9256;52.236;5.712;2023-04-03T05:52:37;0.80;99.90
18260;DHT22;9256;52.236;5.712;2023-04-03T05:55:05;0.80;99.90
18260;DHT22;9256;52.236;5.712;2023-04-03T05:57:32;0.80;99.90
18260;DHT22;9256;52.236;5.712;2023-04-03T05:59:59;0.90;99.90
18260;DHT22;9256;52.236;5.712;2023-04-03T06:02:26;0.90;99.90
18260;DHT22;9256;52.236;5.712;2023-04-03T06:04:53;0.90;99.90
18260;DHT22;9256;52.236;5.712;2023-04-03T06:07:22;0.90;99.90
18260;DHT22;9256;52.236;5.712;2023-04-03T06:09:52;1.00;99.90
18260;DHT22;9256;52.236;5.712;2023-04-03T06:12:19;1.10;99.90
18260;DHT22;9256;52.236;5.712;2023-04-03T06:14:47;1.10;99.90
18260;DHT22;9256;52.236;5.712;2023-04-03T06:17:14;1.20;99.90
18260;DHT22;9256;52.236;5.712;2023-04-03T06:19:43;1.30;99.90
18260;DHT22;9256;52.236;5.712;2023-04-03T06:22:10;1.20;99.90
18260;DHT22;9256;52.236;5.712;2023-04-03T06:24:39;1.30;99.90
18260;DHT22;9256;52.236;5.712;2023-04-03T06:27:07;1.40;99.90
18260;DHT22;9256;52.236;5.712;2023-04-03T06:29:34;1.40;99.90
18260;DHT22;9256;52.236;5.712;2023-04-03T06:32:01;1.40;99.90
18260;DHT22;9256;52.236;5.712;2023-04-03T06:34:28;1.50;99.90
18260;DHT22;9256;52.236;5.712;2023-04-03T06:36:55;1.60;99.90
18260;DHT22;9256;52.236;5.712;2023-04-03T06:39:22;1.60;99.90
18260;DHT22;9256;52.236;5.712;2023-04-03T06:41:50;1.70;99.90
18260;DHT22;9256;52.236;5.712;2023-04-03T06:44:18;1.70;99.90
18260;DHT22;9256;52.236;5.712;2023-04-03T06:46:45;1.70;99.90
18260;DHT22;9256;52.236;5.712;2023-04-03T06:49:12;1.70;99.90
18260;DHT22;9256;52.236;5.712;2023-04-03T06:51:40;1.70;99.90
18260;DHT22;9256;52.236;5.712;2023-04-03T06:54:07;1.80;99.90
18260;DHT22;9256;52.236;5.712;2023-04-03T06:56:35;1.80;99.90
18260;DHT22;9256;52.236;5.712;2023-04-03T06:59:03;1.90;99.90
18260;DHT22;9256;52.236;5.712;2023-04-03T07:01:30;2.00;99.90
18260;DHT22;9256;52.236;5.712;2023-04-03T07:03:57;2.20;99.90
18260;DHT22;9256;52.236;5.712;2023-04-03T07:06:24;2.20;99.90
18260;DHT22;9256;52.236;5.712;2023-04-03T07:08:53;2.20;99.90
18260;DHT22;9256;52.236;5.712;2023-04-03T07:11:20;2.30;99.90
18260;DHT22;9256;52.236;5.712;2023-04-03T07:13:47;2.20;99.90
18260;DHT22;9256;52.236;5.712;2023-04-03T07:16:16;2.30;99.90
18260;DHT22;9256;52.236;5.712;2023-04-03T07:18:43;2.40;99.90
18260;DHT22;9256;52.236;5.712;2023-04-03T07:21:10;2.40;99.90
18260;DHT22;9256;52.236;5.712;2023-04-03T07:23:37;2.60;99.90
18260;DHT22;9256;52.236;5.712;2023-04-03T07:26:04;2.70;99.90
18260;DHT22;9256;52.236;5.712;2023-04-03T07:28:32;2.80;99.90
18260;DHT22;9256;52.236;5.712;2023-04-03T07:31:01;2.80;99.90
18260;DHT22;9256;52.236;5.712;2023-04-03T07:33:30;2.80;99.90
18260;DHT22;9256;52.236;5.712;2023-04-03T07:35:58;2.80;99.90
18260;DHT22;9256;52.236;5.712;2023-04-03T07:38:26;2.90;99.90
18260;DHT22;9256;52.236;5.712;2023-04-03T07:40:53;3.00;99.90
18260;DHT22;9256;52.236;5.712;2023-04-03T07:43:21;3.20;99.90
18260;DHT22;9256;52.236;5.712;2023-04-03T07:45:50;3.20;99.90
18260;DHT22;9256;52.236;5.712;2023-04-03T07:48:19;3.30;99.90
18260;DHT22;9256;52.236;5.712;2023-04-03T07:50:48;3.50;99.90
18260;DHT22;9256;52.236;5.712;2023-04-03T07:53:15;3.60;99.90
18260;DHT22;9256;52.236;5.712;2023-04-03T07:55:43;3.80;99.90
18260;DHT22;9256;52.236;5.712;2023-04-03T07:58:10;3.90;99.90
18260;DHT22;9256;52.236;5.712;2023-04-03T08:00:38;4.00;99.90
18260;DHT22;9256;52.236;5.712;2023-04-03T08:03:05;4.10;99.90
18260;DHT22;9256;52.236;5.712;2023-04-03T08:05:36;4.20;99.90
18260;DHT22;9256;52.236;5.712;2023-04-03T08:08:05;4.20;99.90
18260;DHT22;9256;52.236;5.712;2023-04-03T08:10:32;4.40;99.90
18260;DHT22;9256;52.236;5.712;2023-04-03T08:13:00;4.60;99.90
18260;DHT22;9256;52.236;5.712;2023-04-03T08:15:28;4.60;99.90
18260;DHT22;9256;52.236;5.712;2023-04-03T08:17:56;4.70;99.90
18260;DHT22;9256;52.236;5.712;2023-04-03T08:20:23;4.70;99.90
18260;DHT22;9256;52.236;5.712;2023-04-03T08:22:50;4.80;99.90
18260;DHT22;9256;52.236;5.712;2023-04-03T08:25:18;4.90;99.90
18260;DHT22;9256;52.236;5.712;2023-04-03T08:27:45;5.10;99.90
18260;DHT22;9256;52.236;5.712;2023-04-03T08:30:13;5.10;99.90
18260;DHT22;9256;52.236;5.712;2023-04-03T08:32:40;5.20;99.90
18260;DHT22;9256;52.236;5.712;2023-04-03T08:35:09;5.40;99.90
18260;DHT22;9256;52.236;5.712;2023-04-03T08:37:37;5.50;99.90
18260;DHT22;9256;52.236;5.712;2023-04-03T08:40:05;5.50;99.90
18260;DHT22;9256;52.236;5.712;2023-04-03T08:42:42;5.60;99.90
18260;DHT22;9256;52.236;5.712;2023-04-03T08:45:12;5.70;99.90
18260;DHT22;9256;52.236;5.712;2023-04-03T08:47:45;5.80;99.90
18260;DHT22;9256;52.236;5.712;2023-04-03T08:50:16;5.80;99.90
18260;DHT22;9256;52.236;5.712;2023-04-03T08:52:47;6.00;99.90
18260;DHT22;9256;52.236;5.712;2023-04-03T08:55:22;6.10;99.90
18260;DHT22;9256;52.236;5.712;2023-04-03T08:57:58;6.20;99.90
18260;DHT22;9256;52.236;5.712;2023-04-03T09:00:30;6.20;99.90
18260;DHT22;9256;52.236;5.712;2023-04-03T09:02:57;6.30;99.90
18260;DHT22;9256;52.236;5.712;2023-04-03T09:05:32;6.40;99.90
18260;DHT22;9256;52.236;5.712;2023-04-03T09:08:09;6.50;99.90
18260;DHT22;9256;52.236;5.712;2023-04-03T09:10:40;6.50;99.90
18260;DHT22;9256;52.236;5.712;2023-04-03T09:13:17;6.70;99.90
18260;DHT22;9256;52.236;5.712;2023-04-03T09:15:47;6.90;99.90
18260;DHT22;9256;52.236;5.712;2023-04-03T09:18:19;6.90;99.90
18260;DHT22;9256;52.236;5.712;2023-04-03T09:20:54;7.10;99.90
18260;DHT22;9256;52.236;5.712;2023-04-03T09:23:27;7.20;99.90
18260;DHT22;9256;52.236;5.712;2023-04-03T09:26:00;7.20;99.90
18260;DHT22;9256;52.236;5.712;2023-04-03T09:28:30;7.30;99.90
18260;DHT22;9256;52.236;5.712;2023-04-03T09:31:00;7.40;99.90
18260;DHT22;9256;52.236;5.712;2023-04-03T09:33:28;7.50;99.90
18260;DHT22;9256;52.236;5.712;2023-04-03T09:35:56;7.40;99.90
18260;DHT22;9256;52.236;5.712;2023-04-03T09:38:23;7.60;99.90
18260;DHT22;9256;52.236;5.712;2023-04-03T09:41:02;7.50;99.90
18260;DHT22;9256;52.236;5.712;2023-04-03T09:43:32;7.50;99.90
18260;DHT22;9256;52.236;5.712;2023-04-03T09:46:20;7.60;99.90
18260;DHT22;9256;52.236;5.712;2023-04-03T09:48:55;7.70;99.90
18260;DHT22;9256;52.236;5.712;2023-04-03T09:51:25;7.80;99.90
18260;DHT22;9256;52.236;5.712;2023-04-03T09:53:54;8.00;99.90
18260;DHT22;9256;52.236;5.712;2023-04-03T09:56:24;8.00;99.90
18260;DHT22;9256;52.236;5.712;2023-04-03T09:59:07;8.10;99.90
18260;DHT22;9256;52.236;5.712;2023-04-03T10:01:36;8.30;99.90
18260;DHT22;9256;52.236;5.712;2023-04-03T10:04:07;8.20;99.90
18260;DHT22;9256;52.236;5.712;2023-04-03T10:06:36;8.20;99.90
18260;DHT22;9256;52.236;5.712;2023-04-03T10:09:05;8.10;99.90
18260;DHT22;9256;52.236;5.712;2023-04-03T10:11:33;8.10;99.90
18260;DHT22;9256;52.236;5.712;2023-04-03T10:14:02;8.20;99.90
18260;DHT22;9256;52.236;5.712;2023-04-03T10:16:36;8.20;99.90
18260;DHT22;9256;52.236;5.712;2023-04-03T10:19:23;8.50;99.90
18260;DHT22;9256;52.236;5.712;2023-04-03T10:21:58;8.30;99.90
18260;DHT22;9256;52.236;5.712;2023-04-03T10:24:34;8.20;99.90
18260;DHT22;9256;52.236;5.712;2023-04-03T10:27:07;8.30;99.90
18260;DHT22;9256;52.236;5.712;2023-04-03T10:29:43;8.20;99.90
18260;DHT22;9256;52.236;5.712;2023-04-03T10:32:26;8.50;99.90
18260;DHT22;9256;52.236;5.712;2023-04-03T10:34:58;8.50;99.90
18260;DHT22;9256;52.236;5.712;2023-04-03T10:37:30;8.60;99.90
18260;DHT22;9256;52.236;5.712;2023-04-03T10:40:20;8.70;99.90
18260;DHT22;9256;52.236;5.712;2023-04-03T10:42:55;8.60;99.90
18260;DHT22;9256;52.236;5.712;2023-04-03T10:45:29;8.90;99.90
18260;DHT22;9256;52.236;5.712;2023-04-03T10:48:04;9.00;99.90
18260;DHT22;9256;52.236;5.712;2023-04-03T10:50:46;9.10;99.90
18260;DHT22;9256;52.236;5.712;2023-04-03T10:53:21;9.30;99.90
18260;DHT22;9256;52.236;5.712;2023-04-03T10:55:55;9.40;99.90
18260;DHT22;9256;52.236;5.712;2023-04-03T10:58:28;9.40;99.90
18260;DHT22;9256;52.236;5.712;2023-04-03T11:01:03;9.30;99.90
18260;DHT22;9256;52.236;5.712;2023-04-03T11:03:36;9.20;99.90
18260;DHT22;9256;52.236;5.712;2023-04-03T11:06:08;9.00;99.90
18260;DHT22;9256;52.236;5.712;2023-04-03T11:08:39;9.10;99.90
18260;DHT22;9256;52.236;5.712;2023-04-03T11:11:13;9.30;99.90
18260;DHT22;9256;52.236;5.712;2023-04-03T11:13:44;9.70;99.90
18260;DHT22;9256;52.236;5.712;2023-04-03T11:16:17;10.00;99.90
18260;DHT22;9256;52.236;5.712;2023-04-03T11:18:49;9.80;99.90
18260;DHT22;9256;52.236;5.712;2023-04-03T11:21:21;9.80;99.90
18260;DHT22;9256;52.236;5.712;2023-04-03T11:23:51;9.70;99.90
18260;DHT22;9256;52.236;5.712;2023-04-03T11:26:20;9.90;99.90
18260;DHT22;9256;52.236;5.712;2023-04-03T11:28:53;9.90;99.90
18260;DHT22;9256;52.236;5.712;2023-04-03T11:31:38;9.90;99.90
18260;DHT22;9256;52.236;5.712;2023-04-03T11:34:19;9.60;99.90
18260;DHT22;9256;52.236;5.712;2023-04-03T11:36:52;9.90;99.90
18260;DHT22;9256;52.236;5.712;2023-04-03T11:39:23;10.00;99.90
18260;DHT22;9256;52.236;5.712;2023-04-03T11:41:52;10.10;99.90
18260;DHT22;9256;52.236;5.712;2023-04-03T11:44:32;10.40;99.90
18260;DHT22;9256;52.236;5.712;2023-04-03T11:47:03;10.40;99.90
18260;DHT22;9256;52.236;5.712;2023-04-03T11:49:56;10.50;99.90
18260;DHT22;9256;52.236;5.712;2023-04-03T11:52:56;10.60;99.90
18260;DHT22;9256;52.236;5.712;2023-04-03T11:55:42;10.60;99.90
18260;DHT22;9256;52.236;5.712;2023-04-03T11:58:15;10.50;99.90
18260;DHT22;9256;52.236;5.712;2023-04-03T12:01:00;10.50;99.90
18260;DHT22;9256;52.236;5.712;2023-04-03T12:09:29;10.80;99.90
18260;DHT22;9256;52.236;5.712;2023-04-03T12:11:58;10.80;99.90
18260;DHT22;9256;52.236;5.712;2023-04-03T12:14:26;11.20;99.90
18260;DHT22;9256;52.236;5.712;2023-04-03T12:16:55;11.50;99.90
18260;DHT22;9256;52.236;5.712;2023-04-03T12:19:38;11.50;99.90
18260;DHT22;9256;52.236;5.712;2023-04-03T12:22:17;11.10;99.90
18260;DHT22;9256;52.236;5.712;2023-04-03T12:24:47;11.30;99.90
18260;DHT22;9256;52.236;5.712;2023-04-03T12:27:26;11.10;99.90
18260;DHT22;9256;52.236;5.712;2023-04-03T12:29:58;11.40;99.90
18260;DHT22;9256;52.236;5.712;2023-04-03T12:32:36;10.50;99.90
18260;DHT22;9256;52.236;5.712;2023-04-03T12:35:26;11.20;99.90
18260;DHT22;9256;52.236;5.712;2023-04-03T12:38:37;11.70;99.90
18260;DHT22;9256;52.236;5.712;2023-04-03T12:41:21;11.90;99.90
18260;DHT22;9256;52.236;5.712;2023-04-03T12:46:50;12.30;99.90
18260;DHT22;9256;52.236;5.712;2023-04-03T12:49:30;12.20;99.90
18260;DHT22;9256;52.236;5.712;2023-04-03T12:52:03;12.50;99.90
18260;DHT22;9256;52.236;5.712;2023-04-03T12:54:35;12.80;99.90
18260;DHT22;9256;52.236;5.712;2023-04-03T12:57:10;13.10;99.90
18260;DHT22;9256;52.236;5.712;2023-04-03T12:59:37;13.40;99.90
18260;DHT22;9256;52.236;5.712;2023-04-03T13:02:17;13.60;99.90
18260;DHT22;9256;52.236;5.712;2023-04-03T13:04:46;13.60;99.90
18260;DHT22;9256;52.236;5.712;2023-04-03T13:07:21;13.40;99.90
18260;DHT22;9256;52.236;5.712;2023-04-03T13:09:58;13.70;99.90
18260;DHT22;9256;52.236;5.712;2023-04-03T13:12:26;14.00;99.90
18260;DHT22;9256;52.236;5.712;2023-04-03T13:14:56;14.70;99.90
18260;DHT22;9256;52.236;5.712;2023-04-03T13:17:25;14.40;99.90
18260;DHT22;9256;52.236;5.712;2023-04-03T13:19:53;14.40;99.90
18260;DHT22;9256;52.236;5.712;2023-04-03T13:22:28;14.70;99.90
18260;DHT22;9256;52.236;5.712;2023-04-03T13:24:58;14.40;99.90
18260;DHT22;9256;52.236;5.712;2023-04-03T13:27:27;15.40;99.90
18260;DHT22;9256;52.236;5.712;2023-04-03T13:29:58;14.70;99.90
18260;DHT22;9256;52.236;5.712;2023-04-03T13:32:28;14.70;99.90
18260;DHT22;9256;52.236;5.712;2023-04-03T13:34:56;14.60;99.90
18260;DHT22;9256;52.236;5.712;2023-04-03T13:37:26;14.90;99.90
18260;DHT22;9256;52.236;5.712;2023-04-03T13:40:03;15.10;99.90
18260;DHT22;9256;52.236;5.712;2023-04-03T13:42:38;14.80;99.90
18260;DHT22;9256;52.236;5.712;2023-04-03T13:45:19;14.50;99.90
18260;DHT22;9256;52.236;5.712;2023-04-03T13:47:50;14.40;99.90
18260;DHT22;9256;52.236;5.712;2023-04-03T13:50:20;14.00;99.90
18260;DHT22;9256;52.236;5.712;2023-04-03T13:52:52;14.50;99.90
18260;DHT22;9256;52.236;5.712;2023-04-03T13:55:23;15.30;99.90
18260;DHT22;9256;52.236;5.712;2023-04-03T13:57:52;15.20;99.90
18260;DHT22;9256;52.236;5.712;2023-04-03T14:00:33;15.40;99.90
18260;DHT22;9256;52.236;5.712;2023-04-03T14:03:01;15.60;99.90
18260;DHT22;9256;52.236;5.712;2023-04-03T14:05:28;15.40;99.90
18260;DHT22;9256;52.236;5.712;2023-04-03T14:07:56;15.60;99.90
18260;DHT22;9256;52.236;5.712;2023-04-03T14:10:24;16.00;99.90
18260;DHT22;9256;52.236;5.712;2023-04-03T14:12:51;15.30;99.90
18260;DHT22;9256;52.236;5.712;2023-04-03T14:15:20;15.40;99.90
18260;DHT22;9256;52.236;5.712;2023-04-03T14:17:50;15.90;99.90
18260;DHT22;9256;52.236;5.712;2023-04-03T14:20:19;16.30;99.90
18260;DHT22;9256;52.236;5.712;2023-04-03T14:22:47;16.10;99.90
18260;DHT22;9256;52.236;5.712;2023-04-03T14:25:16;16.30;99.90
18260;DHT22;9256;52.236;5.712;2023-04-03T14:27:46;16.50;99.90
18260;DHT22;9256;52.236;5.712;2023-04-03T14:30:17;17.00;99.90
18260;DHT22;9256;52.236;5.712;2023-04-03T14:32:45;16.20;99.90
18260;DHT22;9256;52.236;5.712;2023-04-03T14:35:13;15.50;99.90
18260;DHT22;9256;52.236;5.712;2023-04-03T14:37:41;13.90;99.90
18260;DHT22;9256;52.236;5.712;2023-04-03T14:40:11;13.30;99.90
18260;DHT22;9256;52.236;5.712;2023-04-03T14:42:40;12.70;99.90
18260;DHT22;9256;52.236;5.712;2023-04-03T14:45:09;12.40;99.90
18260;DHT22;9256;52.236;5.712;2023-04-03T14:47:40;11.80;99.90
18260;DHT22;9256;52.236;5.712;2023-04-03T14:50:13;11.70;99.90
18260;DHT22;9256;52.236;5.712;2023-04-03T14:52:40;11.90;99.90
18260;DHT22;9256;52.236;5.712;2023-04-03T14:55:08;11.80;99.90
18260;DHT22;9256;52.236;5.712;2023-04-03T14:57:35;11.90;99.90
18260;DHT22;9256;52.236;5.712;2023-04-03T15:00:06;12.10;99.90
18260;DHT22;9256;52.236;5.712;2023-04-03T15:02:35;12.20;99.90
18260;DHT22;9256;52.236;5.712;2023-04-03T15:05:04;12.40;99.90
18260;DHT22;9256;52.236;5.712;2023-04-03T15:07:34;12.30;99.90
18260;DHT22;9256;52.236;5.712;2023-04-03T15:10:14;12.30;99.90
18260;DHT22;9256;52.236;5.712;2023-04-03T15:12:42;12.60;99.90
18260;DHT22;9256;52.236;5.712;2023-04-03T15:15:10;12.10;99.90
18260;DHT22;9256;52.236;5.712;2023-04-03T15:17:37;11.80;99.90
18260;DHT22;9256;52.236;5.712;2023-04-03T15:20:11;11.70;99.90
18260;DHT22;9256;52.236;5.712;2023-04-03T15:22:39;11.90;99.90
18260;DHT22;9256;52.236;5.712;2023-04-03T15:25:06;11.80;99.90
18260;DHT22;9256;52.236;5.712;2023-04-03T15:27:33;11.50;99.90
18260;DHT22;9256;52.236;5.712;2023-04-03T15:30:00;11.40;99.90
18260;DHT22;9256;52.236;5.712;2023-04-03T15:32:28;11.30;99.90
18260;DHT22;9256;52.236;5.712;2023-04-03T15:34:56;11.00;99.90
18260;DHT22;9256;52.236;5.712;2023-04-03T15:37:23;12.20;99.90
18260;DHT22;9256;52.236;5.712;2023-04-03T15:39:50;12.60;99.90
18260;DHT22;9256;52.236;5.712;2023-04-03T15:42:17;12.30;99.90
18260;DHT22;9256;52.236;5.712;2023-04-03T15:44:44;12.60;99.90
18260;DHT22;9256;52.236;5.712;2023-04-03T15:47:11;13.10;99.90
18260;DHT22;9256;52.236;5.712;2023-04-03T15:49:39;13.60;99.90
18260;DHT22;9256;52.236;5.712;2023-04-03T15:52:06;14.50;99.90
18260;DHT22;9256;52.236;5.712;2023-04-03T15:54:33;14.70;99.90
18260;DHT22;9256;52.236;5.712;2023-04-03T15:57:00;14.80;99.90
18260;DHT22;9256;52.236;5.712;2023-04-03T15:59:27;15.40;99.90
18260;DHT22;9256;52.236;5.712;2023-04-03T16:01:56;15.50;99.90
18260;DHT22;9256;52.236;5.712;2023-04-03T16:04:23;16.40;99.90
18260;DHT22;9256;52.236;5.712;2023-04-03T16:06:52;16.40;99.90
18260;DHT22;9256;52.236;5.712;2023-04-03T16:09:19;16.80;99.90
18260;DHT22;9256;52.236;5.712;2023-04-03T16:11:46;16.90;99.90
18260;DHT22;9256;52.236;5.712;2023-04-03T16:14:13;16.70;99.90
18260;DHT22;9256;52.236;5.712;2023-04-03T16:16:40;15.50;99.90
18260;DHT22;9256;52.236;5.712;2023-04-03T16:19:07;16.00;99.90
18260;DHT22;9256;52.236;5.712;2023-04-03T16:21:35;16.90;99.90
18260;DHT22;9256;52.236;5.712;2023-04-03T16:24:04;16.50;99.90
18260;DHT22;9256;52.236;5.712;2023-04-03T16:26:36;16.60;99.90